Time;durP1;ratioP1;P1;durP2;ratioP2;P2;SDS_P1;SDS_P2;PMS_P1;PMS_P2;Temp;Humidity;BMP_temperature;BMP_pressure;BME280_temperature;BME280_humidity;BME280_pressure;Samples;Min_cycle;Max_cycle;Signal;HPM_P1;HPM_P2
2021/09/30 00:02:20;;;;;;;0.50;0.40;;;9.10;99.90;;;;;;5045878;28;20195;-81
2021/09/30 00:04:46;;;;;;;0.63;0.63;;;9.20;99.90;;;;;;5050049;28;20220;-80
2021/09/30 00:07:13;;;;;;;0.50;0.50;;;9.20;99.90;;;;;;5053239;28;20197;-81
2021/09/30 00:09:44;;;;;;;1.05;1.05;;;9.30;99.90;;;;;;5052887;28;20737;-79
2021/09/30 00:12:14;;;;;;;0.50;0.40;;;9.30;99.90;;;;;;5053038;28;20205;-80
2021/09/30 00:14:48;;;;;;;0.50;0.40;;;9.40;99.90;;;;;;5053120;28;20212;-80
2021/09/30 00:17:28;;;;;;;0.82;0.82;;;9.40;99.90;;;;;;5053680;28;20203;-81
2021/09/30 00:33:48;;;;;;;0.73;0.73;;;9.30;99.90;;;;;;5049827;28;20253;-82
2021/09/30 00:39:38;;;;;;;0.50;0.40;;;9.30;99.90;;;;;;5046986;28;20176;-80
2021/09/30 00:41:54;;;;;;;0.50;0.40;;;9.20;99.90;;;;;;5051889;28;20210;-80
2021/09/30 00:47:15;;;;;;;2.45;0.73;;;9.20;99.90;;;;;;5058713;28;20263;-81
2021/09/30 00:49:52;;;;;;;0.50;0.40;;;9.20;99.90;;;;;;5060077;28;20208;-81
2021/09/30 00:52:26;;;;;;;0.50;0.40;;;9.20;99.90;;;;;;5045847;28;20271;-81
2021/09/30 00:55:28;;;;;;;0.50;0.40;;;9.20;99.90;;;;;;5039114;28;20218;-81
2021/09/30 01:46:28;;;;;;;0.70;0.70;;;9.10;99.90;;;;;;5098607;28;20185;-81
2021/09/30 02:22:52;;;;;;;0.50;0.50;;;8.80;99.90;;;;;;5092348;28;20233;-80
2021/09/30 02:25:39;;;;;;;0.60;0.57;;;8.70;99.90;;;;;;5093001;28;20574;-82
2021/09/30 02:31:14;;;;;;;9.68;1.98;;;8.60;99.90;;;;;;5092862;28;20217;-80
2021/09/30 02:39:53;;;;;;;0.95;0.90;;;8.50;99.90;;;;;;5091605;28;20201;-79
2021/09/30 02:59:31;;;;;;;0.50;0.50;;;8.30;99.90;;;;;;5079656;28;20194;-80
2021/09/30 03:01:58;;;;;;;0.50;0.50;;;8.30;99.90;;;;;;5079107;28;20588;-81
2021/09/30 03:04:26;;;;;;;0.90;0.90;;;8.30;99.90;;;;;;5079972;28;20210;-78
2021/09/30 03:06:55;;;;;;;0.50;0.40;;;8.30;99.90;;;;;;5081027;28;20210;-81
2021/09/30 03:09:23;;;;;;;0.75;0.68;;;8.30;99.90;;;;;;5079651;28;20202;-80
2021/09/30 03:11:53;;;;;;;0.82;0.75;;;8.30;99.90;;;;;;5078128;28;20187;-81
2021/09/30 03:14:21;;;;;;;0.50;0.40;;;8.30;99.90;;;;;;5076491;28;20215;-82
2021/09/30 03:16:50;;;;;;;0.50;0.50;;;8.30;99.90;;;;;;5077490;28;20218;-81
2021/09/30 03:19:31;;;;;;;0.88;0.82;;;8.30;99.90;;;;;;5076126;28;20677;-81
2021/09/30 03:22:13;;;;;;;0.88;0.88;;;8.30;99.90;;;;;;5076468;28;20237;-82
2021/09/30 03:24:42;;;;;;;0.60;0.60;;;8.30;99.90;;;;;;5076486;28;20214;-81
2021/09/30 03:27:09;;;;;;;0.50;0.50;;;8.20;99.90;;;;;;5076233;28;20248;-81
2021/09/30 03:29:37;;;;;;;0.60;0.60;;;8.20;99.90;;;;;;5075729;28;20572;-81
2021/09/30 03:32:05;;;;;;;0.70;0.70;;;8.20;99.90;;;;;;5075457;28;20193;-82
2021/09/30 03:34:33;;;;;;;0.80;0.80;;;8.30;99.90;;;;;;5075758;28;20226;-81
2021/09/30 03:37:02;;;;;;;0.50;0.40;;;8.20;99.90;;;;;;5077080;28;20548;-81
2021/09/30 03:39:29;;;;;;;0.60;0.50;;;8.30;99.90;;;;;;5076358;28;20207;-81
2021/09/30 03:41:55;;;;;;;0.50;0.40;;;8.30;99.90;;;;;;5075287;28;20218;-80
2021/09/30 03:44:23;;;;;;;0.63;0.63;;;8.20;99.90;;;;;;5075787;28;20237;-80
2021/09/30 03:46:52;;;;;;;6.57;0.60;;;8.20;99.90;;;;;;5075735;28;20199;-82
2021/09/30 03:49:26;;;;;;;0.60;0.60;;;8.20;99.90;;;;;;5076661;28;20199;-82
2021/09/30 03:51:58;;;;;;;1.23;1.13;;;8.20;99.90;;;;;;5076102;28;20273;-81
2021/09/30 03:54:34;;;;;;;0.50;0.43;;;8.20;99.90;;;;;;5075616;28;20225;-81
2021/09/30 03:57:07;;;;;;;1.30;1.15;;;8.20;99.90;;;;;;5076258;28;20252;-81
2021/09/30 03:59:33;;;;;;;0.50;0.40;;;8.20;99.90;;;;;;5077416;28;20180;-83
2021/09/30 04:02:01;;;;;;;0.50;0.40;;;8.10;99.90;;;;;;5075733;28;20219;-81
2021/09/30 04:04:30;;;;;;;0.50;0.50;;;8.10;99.90;;;;;;5075817;28;20219;-82
2021/09/30 04:06:58;;;;;;;0.50;0.40;;;8.10;99.90;;;;;;5076661;28;20564;-80
2021/09/30 04:09:29;;;;;;;0.50;0.40;;;8.10;99.90;;;;;;5093787;22;20194;-76
2021/09/30 04:11:57;;;;;;;0.95;0.95;;;8.00;99.90;;;;;;5021942;28;20212;-78
2021/09/30 04:14:24;;;;;;;4.32;2.05;;;8.00;99.90;;;;;;5032651;28;20196;-78
2021/09/30 04:16:51;;;;;;;0.50;0.40;;;8.00;99.90;;;;;;5032428;28;20200;-78
2021/09/30 04:19:19;;;;;;;0.80;0.80;;;8.00;99.90;;;;;;5032217;28;20204;-78
2021/09/30 04:21:46;;;;;;;1.35;1.35;;;8.00;99.90;;;;;;5031731;28;20287;-78
2021/09/30 04:24:13;;;;;;;0.50;0.50;;;8.00;99.90;;;;;;5032430;28;20206;-78
2021/09/30 04:26:42;;;;;;;0.60;0.60;;;8.00;99.90;;;;;;5032322;28;20205;-77
2021/09/30 04:29:09;;;;;;;1.63;0.55;;;8.00;99.90;;;;;;5032147;28;20253;-78
2021/09/30 04:31:36;;;;;;;0.50;0.40;;;8.00;99.90;;;;;;5032115;28;20227;-78
2021/09/30 04:34:04;;;;;;;1.15;1.02;;;8.00;99.90;;;;;;5031695;28;20199;-78
2021/09/30 04:36:30;;;;;;;1.23;0.70;;;8.00;99.90;;;;;;5032374;28;20242;-78
2021/09/30 04:38:57;;;;;;;0.50;0.40;;;8.00;99.90;;;;;;5032162;28;20195;-78
2021/09/30 04:41:24;;;;;;;0.50;0.47;;;8.00;99.90;;;;;;5031463;28;20228;-77
2021/09/30 04:43:52;;;;;;;0.50;0.40;;;7.90;99.90;;;;;;5032189;28;20219;-78
2021/09/30 04:46:21;;;;;;;0.50;0.40;;;7.90;99.90;;;;;;5032438;28;20203;-77
2021/09/30 04:48:48;;;;;;;0.63;0.60;;;7.90;99.90;;;;;;5031924;28;20291;-78
2021/09/30 04:51:15;;;;;;;3.33;2.20;;;7.90;99.90;;;;;;5031445;28;20227;-78
2021/09/30 04:53:43;;;;;;;0.50;0.50;;;8.00;99.90;;;;;;5031657;28;20596;-79
2021/09/30 04:56:10;;;;;;;3.10;2.95;;;8.00;99.90;;;;;;5031401;28;20192;-77
2021/09/30 04:58:37;;;;;;;1.20;1.10;;;8.00;99.90;;;;;;5031497;28;20299;-76
2021/09/30 05:01:06;;;;;;;0.60;0.50;;;7.90;99.90;;;;;;5031496;28;20219;-77
2021/09/30 05:03:32;;;;;;;0.60;0.60;;;7.90;99.90;;;;;;5031586;28;20241;-79
2021/09/30 05:05:59;;;;;;;1.23;1.15;;;7.90;99.90;;;;;;5031933;28;20200;-78
2021/09/30 05:08:27;;;;;;;0.80;0.60;;;8.00;99.90;;;;;;5031107;28;20661;-78
2021/09/30 05:10:54;;;;;;;1.58;0.50;;;7.90;99.90;;;;;;5031014;28;20230;-75
2021/09/30 05:13:22;;;;;;;1.65;1.35;;;7.90;99.90;;;;;;5031355;28;20191;-74
2021/09/30 05:15:49;;;;;;;0.80;0.80;;;7.90;99.90;;;;;;5031264;28;20192;-77
2021/09/30 05:18:18;;;;;;;2.15;1.67;;;7.90;99.90;;;;;;5031281;28;20251;-78
2021/09/30 05:20:44;;;;;;;1.02;0.93;;;7.90;99.90;;;;;;5031214;28;20256;-77
2021/09/30 05:23:11;;;;;;;0.50;0.47;;;7.90;99.90;;;;;;5031166;28;20223;-77
2021/09/30 05:25:38;;;;;;;0.50;0.40;;;7.90;99.90;;;;;;5031128;28;20577;-79
2021/09/30 05:28:05;;;;;;;0.50;0.40;;;7.90;99.90;;;;;;5031668;28;20207;-78
2021/09/30 05:30:32;;;;;;;1.85;1.40;;;7.90;99.90;;;;;;5031269;28;20588;-78
2021/09/30 05:32:58;;;;;;;0.50;0.40;;;7.90;99.90;;;;;;5031507;28;20203;-78
2021/09/30 05:35:27;;;;;;;5.47;0.70;;;7.90;99.90;;;;;;5031068;28;20211;-76
2021/09/30 05:37:54;;;;;;;0.50;0.50;;;7.90;99.90;;;;;;5030463;28;20203;-77
2021/09/30 05:40:21;;;;;;;1.60;1.05;;;7.90;99.90;;;;;;5030368;28;20212;-77
2021/09/30 05:42:48;;;;;;;1.50;0.77;;;7.90;99.90;;;;;;5030877;28;20247;-77
2021/09/30 05:45:16;;;;;;;2.15;1.55;;;8.00;99.90;;;;;;5030872;28;20192;-77
2021/09/30 05:47:44;;;;;;;0.80;0.60;;;8.00;99.90;;;;;;5031123;28;20203;-77
2021/09/30 05:50:12;;;;;;;0.65;0.65;;;8.00;99.90;;;;;;5030493;28;20223;-77
2021/09/30 05:52:41;;;;;;;0.98;0.98;;;8.00;99.90;;;;;;5031146;28;20246;-77
2021/09/30 05:55:09;;;;;;;0.50;0.40;;;8.10;99.90;;;;;;5029958;28;20581;-77
2021/09/30 05:57:36;;;;;;;0.50;0.40;;;8.10;99.90;;;;;;5030933;28;20211;-77
2021/09/30 06:00:12;;;;;;;0.50;0.40;;;8.20;99.90;;;;;;5030431;28;20736;-76
2021/09/30 06:11:17;;;;;;;0.95;0.85;;;8.30;99.90;;;;;;4972840;28;20257;-77
2021/09/30 06:13:49;;;;;;;9.25;1.35;;;8.40;99.90;;;;;;4974020;28;20225;-78
2021/09/30 06:16:17;;;;;;;2.15;0.70;;;8.40;99.90;;;;;;5006276;28;20199;-78
2021/09/30 06:18:44;;;;;;;1.10;1.10;;;8.40;99.90;;;;;;5034963;28;20192;-77
2021/09/30 06:21:12;;;;;;;0.90;0.68;;;8.50;99.90;;;;;;5034241;28;20701;-77
2021/09/30 06:23:40;;;;;;;0.50;0.40;;;8.50;99.90;;;;;;5033977;28;20316;-77
2021/09/30 06:26:07;;;;;;;0.70;0.60;;;8.50;99.90;;;;;;5034469;28;20196;-77
2021/09/30 06:28:33;;;;;;;2.08;1.33;;;8.60;99.90;;;;;;5034257;28;20681;-77
2021/09/30 06:31:00;;;;;;;0.70;0.60;;;8.60;99.90;;;;;;5034051;28;20224;-78
2021/09/30 06:33:27;;;;;;;6.35;1.67;;;8.70;99.90;;;;;;5034081;28;20196;-77
2021/09/30 06:35:55;;;;;;;1.30;1.20;;;8.80;99.90;;;;;;5034360;28;20201;-77
2021/09/30 06:38:22;;;;;;;0.50;0.40;;;8.90;99.90;;;;;;5034219;28;20195;-77
2021/09/30 06:40:50;;;;;;;0.60;0.57;;;9.00;99.90;;;;;;5033630;28;20220;-77
2021/09/30 06:43:16;;;;;;;6.93;1.02;;;9.20;99.90;;;;;;5033967;28;20216;-77
2021/09/30 06:45:43;;;;;;;0.88;0.88;;;9.30;99.90;;;;;;5034147;28;20206;-77
2021/09/30 06:48:10;;;;;;;0.75;0.75;;;9.40;99.90;;;;;;5033969;28;20197;-77
2021/09/30 06:50:37;;;;;;;0.50;0.40;;;9.50;99.90;;;;;;5033443;28;20259;-77
2021/09/30 06:53:05;;;;;;;1.20;1.10;;;9.60;99.90;;;;;;5033968;28;20648;-78
2021/09/30 06:55:32;;;;;;;6.75;2.65;;;9.60;99.90;;;;;;5033690;28;20630;-78
2021/09/30 06:58:00;;;;;;;2.65;1.00;;;9.70;99.90;;;;;;5034031;28;20238;-77
2021/09/30 07:00:27;;;;;;;0.93;0.77;;;9.80;99.90;;;;;;5033147;28;20218;-77
2021/09/30 07:02:54;;;;;;;5.53;1.17;;;9.90;99.90;;;;;;5033503;28;20620;-77
2021/09/30 07:05:21;;;;;;;0.60;0.60;;;9.90;99.90;;;;;;5033544;28;20208;-77
2021/09/30 07:07:48;;;;;;;2.78;1.40;;;9.80;99.90;;;;;;5033798;28;20197;-77
2021/09/30 07:10:15;;;;;;;0.93;0.65;;;9.80;99.90;;;;;;5032508;28;20228;-78
2021/09/30 07:12:42;;;;;;;0.50;0.50;;;9.80;99.90;;;;;;5033684;28;20192;-77
2021/09/30 07:15:11;;;;;;;0.50;0.40;;;9.90;99.90;;;;;;5033567;28;20292;-77
2021/09/30 07:17:38;;;;;;;2.78;1.33;;;10.00;99.90;;;;;;5033308;28;20677;-77
2021/09/30 07:20:06;;;;;;;0.80;0.73;;;10.10;99.90;;;;;;5032909;28;20220;-77
2021/09/30 07:22:33;;;;;;;2.70;2.50;;;10.10;99.90;;;;;;5033157;28;20241;-76
2021/09/30 07:24:59;;;;;;;1.52;1.42;;;10.10;99.90;;;;;;5033178;28;20670;-77
2021/09/30 07:27:26;;;;;;;0.50;0.40;;;10.20;99.90;;;;;;5033117;28;20702;-77
2021/09/30 07:29:53;;;;;;;3.15;0.98;;;10.30;99.90;;;;;;5033382;28;20582;-77
2021/09/30 07:32:22;;;;;;;0.90;0.80;;;10.50;99.90;;;;;;5032937;28;20211;-75
2021/09/30 07:34:49;;;;;;;0.70;0.70;;;10.50;99.90;;;;;;5032551;28;20662;-77
2021/09/30 07:37:15;;;;;;;2.55;1.13;;;10.60;99.90;;;;;;5033362;28;20200;-77
2021/09/30 07:39:42;;;;;;;4.10;1.10;;;10.80;99.90;;;;;;5032954;28;20230;-77
2021/09/30 07:42:09;;;;;;;1.45;0.70;;;11.20;99.90;;;;;;5033096;28;20209;-77
2021/09/30 07:44:36;;;;;;;0.60;0.50;;;11.80;99.90;;;;;;5032246;28;20718;-78
2021/09/30 07:47:04;;;;;;;0.90;0.90;;;12.00;99.90;;;;;;5032913;28;20203;-77
2021/09/30 07:49:33;;;;;;;1.42;1.33;;;12.10;99.90;;;;;;5032411;28;20221;-77
2021/09/30 07:52:00;;;;;;;3.47;3.28;;;12.10;99.90;;;;;;5032257;28;20691;-77
2021/09/30 07:54:27;;;;;;;0.60;0.60;;;12.60;99.90;;;;;;5032705;28;20196;-77
2021/09/30 07:56:53;;;;;;;0.50;0.40;;;13.50;99.90;;;;;;5032332;28;20442;-78
2021/09/30 07:59:20;;;;;;;0.50;0.40;;;14.70;99.90;;;;;;5032615;28;20438;-78
2021/09/30 08:01:47;;;;;;;1.10;1.00;;;15.90;99.90;;;;;;5032318;28;20951;-77
2021/09/30 08:04:15;;;;;;;0.57;0.47;;;16.80;99.90;;;;;;5032618;28;20485;-77
2021/09/30 08:06:43;;;;;;;0.80;0.70;;;17.50;99.90;;;;;;5032536;28;20530;-77
2021/09/30 08:09:09;;;;;;;2.97;1.33;;;17.60;99.90;;;;;;5032382;28;20508;-78
2021/09/30 08:11:36;;;;;;;0.63;0.63;;;18.20;99.90;;;;;;5031469;28;20563;-77
2021/09/30 08:14:03;;;;;;;0.70;0.60;;;18.40;99.90;;;;;;5032075;28;20960;-77
2021/09/30 08:16:30;;;;;;;1.73;1.23;;;18.70;99.90;;;;;;5032545;28;20557;-77
2021/09/30 08:18:58;;;;;;;4.33;0.87;;;19.60;99.90;;;;;;5032173;28;20439;-76
2021/09/30 08:21:27;;;;;;;0.50;0.40;;;19.50;99.90;;;;;;5031836;28;20937;-77
2021/09/30 08:23:55;;;;;;;0.50;0.40;;;19.20;99.90;;;;;;5031629;28;20534;-78
2021/09/30 08:26:23;;;;;;;0.60;0.60;;;19.90;99.90;;;;;;5032378;28;20444;-77
2021/09/30 08:28:52;;;;;;;0.70;0.60;;;20.50;99.90;;;;;;5032423;28;20814;-78
2021/09/30 08:31:21;;;;;;;0.50;0.30;;;20.20;98.20;;;;;;5031130;28;20993;-74
2021/09/30 08:33:48;;;;;;;0.60;0.60;;;20.50;97.50;;;;;;5032012;28;20438;-77
2021/09/30 08:36:16;;;;;;;1.53;1.43;;;20.20;96.80;;;;;;5031944;28;20455;-77
2021/09/30 08:38:44;;;;;;;0.80;0.60;;;20.00;97.80;;;;;;5032292;28;20599;-77
2021/09/30 08:41:14;;;;;;;0.50;0.40;;;19.70;99.00;;;;;;5031807;28;20530;-78
2021/09/30 08:43:41;;;;;;;0.50;0.40;;;20.50;99.90;;;;;;5032151;28;20476;-78
2021/09/30 08:46:07;;;;;;;1.17;1.07;;;20.90;95.80;;;;;;5032018;28;20436;-76
2021/09/30 08:48:35;;;;;;;7.40;0.80;;;20.90;94.70;;;;;;5032130;28;20443;-77
2021/09/30 08:51:02;;;;;;;0.50;0.40;;;20.30;94.70;;;;;;5031550;28;20461;-78
2021/09/30 08:53:29;;;;;;;1.07;0.97;;;20.30;98.00;;;;;;5031966;28;20441;-77
2021/09/30 08:55:56;;;;;;;0.50;0.40;;;19.90;96.00;;;;;;5032055;28;20448;-78
2021/09/30 08:58:24;;;;;;;0.50;0.40;;;20.00;96.70;;;;;;5032568;28;20448;-77
2021/09/30 09:00:57;;;;;;;1.33;1.33;;;20.00;99.90;;;;;;5031214;28;20871;-77
2021/09/30 09:03:36;;;;;;;0.50;0.30;;;19.90;98.70;;;;;;5031268;28;20867;-77
2021/09/30 09:06:03;;;;;;;0.60;0.50;;;19.70;99.90;;;;;;5031994;28;20495;-77
2021/09/30 09:08:30;;;;;;;3.27;0.97;;;20.20;98.90;;;;;;5032472;28;20440;-74
2021/09/30 09:10:59;;;;;;;4.40;1.67;;;19.10;99.90;;;;;;5031379;28;20472;-77
2021/09/30 09:13:27;;;;;;;0.50;0.30;;;18.70;99.90;;;;;;5031825;28;20469;-77
2021/09/30 09:15:57;;;;;;;0.50;0.40;;;17.80;99.90;;;;;;5031526;28;20467;-77
2021/09/30 09:18:27;;;;;;;1.30;0.70;;;17.80;99.90;;;;;;5031668;28;20426;-77
2021/09/30 09:21:04;;;;;;;0.50;0.30;;;18.90;99.90;;;;;;5031360;28;20464;-78
2021/09/30 09:23:32;;;;;;;0.60;0.50;;;19.10;99.90;;;;;;5031466;28;20484;-77
2021/09/30 09:26:11;;;;;;;1.90;0.87;;;19.40;99.90;;;;;;5031302;28;20451;-77
2021/09/30 09:28:41;;;;;;;0.50;0.40;;;20.40;99.90;;;;;;5032132;28;20448;-79
2021/09/30 09:31:07;;;;;;;1.13;0.70;;;20.20;99.90;;;;;;5030982;28;20980;-77
2021/09/30 09:33:37;;;;;;;0.50;0.30;;;19.60;99.90;;;;;;5031832;28;20442;-77
2021/09/30 09:36:06;;;;;;;1.60;0.80;;;19.30;99.90;;;;;;5032104;28;20494;-78
2021/09/30 09:38:48;;;;;;;0.70;0.70;;;19.00;99.90;;;;;;5031536;28;20476;-78
2021/09/30 09:41:23;;;;;;;0.60;0.60;;;18.70;99.90;;;;;;5031418;28;20509;-77
2021/09/30 09:43:53;;;;;;;1.27;0.60;;;18.00;99.90;;;;;;5033501;28;20879;-78
2021/09/30 09:46:21;;;;;;;1.17;0.60;;;18.40;99.90;;;;;;5034946;28;20448;-77
2021/09/30 09:48:57;;;;;;;0.60;0.40;;;19.70;99.90;;;;;;5034978;28;20503;-77
2021/09/30 09:51:24;;;;;;;0.60;0.60;;;20.20;99.90;;;;;;5035317;28;20464;-77
2021/09/30 09:53:56;;;;;;;0.60;0.50;;;20.30;96.70;;;;;;5035488;28;20855;-77
2021/09/30 09:56:25;;;;;;;0.60;0.53;;;20.90;96.10;;;;;;5035270;28;20492;-77
2021/09/30 09:58:56;;;;;;;0.90;0.60;;;20.30;92.00;;;;;;5035225;28;20446;-78
2021/09/30 10:01:25;;;;;;;0.90;0.80;;;19.50;95.40;;;;;;5034875;28;20496;-78
2021/09/30 10:03:58;;;;;;;0.50;0.30;;;19.90;97.20;;;;;;5034687;28;20575;-78
2021/09/30 10:06:26;;;;;;;0.50;0.30;;;20.20;95.10;;;;;;5035002;28;20438;-78
2021/09/30 10:08:53;;;;;;;0.50;0.40;;;20.60;93.70;;;;;;5034662;28;20449;-77
2021/09/30 10:11:20;;;;;;;3.40;0.53;;;20.50;92.30;;;;;;5035051;28;20803;-74
2021/09/30 10:13:47;;;;;;;0.50;0.30;;;20.30;92.40;;;;;;5034625;28;20442;-77
2021/09/30 10:16:18;;;;;;;2.87;0.73;;;20.50;95.60;;;;;;5035174;28;20449;-77
2021/09/30 10:18:48;;;;;;;0.50;0.40;;;20.90;91.40;;;;;;5034853;28;20537;-77
2021/09/30 10:21:15;;;;;;;0.50;0.30;;;20.30;90.10;;;;;;5034655;28;20492;-78
2021/09/30 10:23:42;;;;;;;0.50;0.40;;;20.90;91.30;;;;;;5034054;28;20481;-77
2021/09/30 10:26:14;;;;;;;0.60;0.50;;;21.80;86.00;;;;;;5034583;28;20549;-77
2021/09/30 10:28:44;;;;;;;1.17;0.50;;;21.40;83.90;;;;;;5034476;28;20453;-76
2021/09/30 10:31:25;;;;;;;0.50;0.40;;;20.60;85.10;;;;;;5034416;28;20472;-76
2021/09/30 10:33:53;;;;;;;0.50;0.40;;;19.90;85.00;;;;;;5034291;28;20930;-77
2021/09/30 10:36:38;;;;;;;0.50;0.37;;;19.40;87.50;;;;;;5034766;28;20541;-75
2021/09/30 10:39:30;;;;;;;1.53;1.43;;;20.00;87.50;;;;;;5035335;28;20438;-78
2021/09/30 10:41:59;;;;;;;0.70;0.53;;;20.40;84.10;;;;;;5015250;28;20481;-77
2021/09/30 10:44:30;;;;;;;0.50;0.50;;;19.60;83.30;;;;;;5034293;28;20472;-74
2021/09/30 10:47:00;;;;;;;0.50;0.40;;;18.30;88.80;;;;;;5034683;28;20442;-78
2021/09/30 10:49:32;;;;;;;0.60;0.40;;;17.70;91.80;;;;;;5033945;28;20807;-78
2021/09/30 10:52:28;;;;;;;0.50;0.40;;;18.00;93.00;;;;;;5034130;28;20539;-77
2021/09/30 10:55:26;;;;;;;3.73;0.87;;;18.30;90.40;;;;;;5033524;28;20947;-78
2021/09/30 10:57:54;;;;;;;0.60;0.47;;;18.90;89.10;;;;;;5033931;28;20434;-78
2021/09/30 11:00:49;;;;;;;2.20;0.73;;;19.60;85.10;;;;;;5033710;28;20544;-76
2021/09/30 11:03:24;;;;;;;1.30;0.83;;;19.00;81.30;;;;;;5033814;28;20437;-77
2021/09/30 11:06:24;;;;;;;1.00;0.60;;;18.70;81.30;;;;;;5034031;28;20535;-77
2021/09/30 11:09:11;;;;;;;0.63;0.63;;;18.10;79.30;;;;;;5033635;28;20822;-77
2021/09/30 11:11:38;;;;;;;0.60;0.40;;;18.40;82.90;;;;;;5033030;28;20477;-77
2021/09/30 11:14:17;;;;;;;0.50;0.40;;;18.90;78.20;;;;;;5034001;28;20432;-77
2021/09/30 11:16:47;;;;;;;0.50;0.30;;;19.10;76.90;;;;;;5033978;28;20444;-77
2021/09/30 11:19:30;;;;;;;0.50;0.40;;;19.20;80.90;;;;;;5034485;28;20481;-77
2021/09/30 11:22:00;;;;;;;0.50;0.30;;;19.50;76.60;;;;;;5034418;28;20440;-77
2021/09/30 11:24:31;;;;;;;0.50;0.30;;;19.10;76.70;;;;;;5033839;28;20511;-77
2021/09/30 11:27:22;;;;;;;0.50;0.30;;;19.40;80.30;;;;;;5034385;28;20442;-77
2021/09/30 11:29:50;;;;;;;0.50;0.40;;;19.10;81.10;;;;;;5034952;28;20454;-77
2021/09/30 11:32:27;;;;;;;0.50;0.40;;;20.10;83.60;;;;;;5033232;28;20490;-77
2021/09/30 11:35:03;;;;;;;0.50;0.30;;;20.60;75.80;;;;;;5033741;28;20433;-77
2021/09/30 11:37:42;;;;;;;0.50;0.40;;;20.40;75.90;;;;;;5034053;28;20519;-74
2021/09/30 11:40:20;;;;;;;2.67;2.47;;;19.90;74.10;;;;;;5034966;28;20489;-77
2021/09/30 11:42:51;;;;;;;0.50;0.30;;;20.00;78.80;;;;;;5035073;28;20452;-77
2021/09/30 11:45:21;;;;;;;0.53;0.37;;;20.30;79.80;;;;;;5033319;28;20569;-76
2021/09/30 11:47:49;;;;;;;0.50;0.30;;;20.50;72.80;;;;;;5033506;28;20445;-77
2021/09/30 11:50:24;;;;;;;0.50;0.30;;;20.70;74.70;;;;;;5033121;28;20454;-77
2021/09/30 11:53:01;;;;;;;0.60;0.40;;;20.90;70.80;;;;;;5032861;28;20423;-77
2021/09/30 11:55:29;;;;;;;0.50;0.30;;;20.00;70.70;;;;;;5033167;28;20855;-74
2021/09/30 11:57:59;;;;;;;0.50;0.40;;;20.00;73.00;;;;;;5032922;28;20450;-77
2021/09/30 12:00:26;;;;;;;0.50;0.50;;;20.20;71.10;;;;;;5032703;28;20473;-77
2021/09/30 12:02:59;;;;;;;0.50;0.30;;;20.10;70.90;;;;;;5032321;28;20453;-77
2021/09/30 12:05:30;;;;;;;0.60;0.53;;;20.10;72.10;;;;;;5032310;28;20476;-78
2021/09/30 12:07:59;;;;;;;0.50;0.37;;;20.20;70.40;;;;;;5032638;28;20451;-76
2021/09/30 12:10:27;;;;;;;0.50;0.30;;;20.90;71.40;;;;;;5032130;28;20469;-77
2021/09/30 12:12:54;;;;;;;0.50;0.30;;;21.90;69.40;;;;;;5032632;28;20454;-78
2021/09/30 12:15:21;;;;;;;0.70;0.40;;;23.10;66.60;;;;;;5032569;28;20786;-77
2021/09/30 12:17:48;;;;;;;0.50;0.30;;;22.90;62.30;;;;;;5032383;28;20450;-77
2021/09/30 12:20:18;;;;;;;0.50;0.40;;;22.10;64.50;;;;;;5032430;28;20516;-77
2021/09/30 12:22:48;;;;;;;0.50;0.30;;;21.40;66.60;;;;;;5032347;28;20947;-77
2021/09/30 12:25:17;;;;;;;0.50;0.30;;;21.30;69.30;;;;;;5032539;28;20840;-76
2021/09/30 12:27:46;;;;;;;20.60;0.97;;;20.40;67.90;;;;;;5032382;28;20445;-77
2021/09/30 12:30:15;;;;;;;0.60;0.40;;;19.40;69.40;;;;;;5032339;28;20464;-76
2021/09/30 12:32:44;;;;;;;0.50;0.43;;;18.00;72.60;;;;;;5032510;28;20479;-77
2021/09/30 12:35:17;;;;;;;0.60;0.50;;;17.30;76.80;;;;;;5032638;28;20444;-76
2021/09/30 12:37:49;;;;;;;0.50;0.40;;;17.10;76.40;;;;;;5032631;28;20547;-77
2021/09/30 12:40:18;;;;;;;1.07;0.97;;;16.70;79.10;;;;;;5031356;28;20463;-76
2021/09/30 12:43:01;;;;;;;0.50;0.40;;;16.90;82.90;;;;;;5032222;28;20446;-77
2021/09/30 12:45:29;;;;;;;0.50;0.40;;;17.30;83.40;;;;;;5032494;28;20475;-73
2021/09/30 12:48:04;;;;;;;0.50;0.33;;;18.70;82.90;;;;;;5027786;28;20458;-76
2021/09/30 12:50:37;;;;;;;0.60;0.40;;;19.70;80.90;;;;;;5025575;28;20835;-77
2021/09/30 12:53:05;;;;;;;1.20;0.60;;;19.20;78.70;;;;;;5032101;28;20441;-77
2021/09/30 12:55:33;;;;;;;0.50;0.40;;;18.60;81.20;;;;;;5032176;28;20437;-77
2021/09/30 12:58:01;;;;;;;2.30;0.90;;;18.10;82.60;;;;;;5030231;28;20445;-77
2021/09/30 13:00:33;;;;;;;0.50;0.40;;;18.00;83.40;;;;;;5030846;28;20837;-76
2021/09/30 13:03:13;;;;;;;3.13;0.80;;;18.00;84.10;;;;;;5031551;28;20498;-76
2021/09/30 13:05:46;;;;;;;0.70;0.70;;;18.00;80.70;;;;;;5031642;28;20464;-77
2021/09/30 13:08:15;;;;;;;0.50;0.40;;;17.80;80.60;;;;;;5031336;28;20446;-76
2021/09/30 13:10:41;;;;;;;0.50;0.40;;;18.10;80.10;;;;;;5031008;28;20501;-76
2021/09/30 13:13:14;;;;;;;0.50;0.40;;;17.80;82.20;;;;;;5032275;28;20445;-76
2021/09/30 13:15:43;;;;;;;0.50;0.40;;;17.40;84.50;;;;;;5031845;28;20973;-76
2021/09/30 13:18:12;;;;;;;0.50;0.40;;;17.00;89.00;;;;;;5031233;28;20445;-76
2021/09/30 13:20:42;;;;;;;0.80;0.50;;;16.80;90.40;;;;;;5031188;28;20466;-77
2021/09/30 13:23:09;;;;;;;0.50;0.40;;;16.60;92.50;;;;;;5032001;28;20448;-77
2021/09/30 13:25:38;;;;;;;0.50;0.40;;;16.50;94.30;;;;;;5031418;28;20479;-77
2021/09/30 13:28:05;;;;;;;7.30;0.70;;;16.60;94.40;;;;;;5031726;28;21006;-78
2021/09/30 13:30:34;;;;;;;0.50;0.40;;;16.50;92.10;;;;;;5030544;28;20456;-77
2021/09/30 13:33:03;;;;;;;0.60;0.60;;;16.60;93.40;;;;;;5031721;28;20443;-78
2021/09/30 13:35:32;;;;;;;0.50;0.40;;;16.50;95.30;;;;;;5031260;28;20434;-77
2021/09/30 13:37:59;;;;;;;0.60;0.40;;;16.60;96.90;;;;;;5031635;28;20449;-77
2021/09/30 13:40:27;;;;;;;0.50;0.33;;;16.50;99.40;;;;;;5031144;28;20476;-77
2021/09/30 13:42:55;;;;;;;0.50;0.47;;;16.40;99.90;;;;;;5031245;28;20439;-77
2021/09/30 13:45:24;;;;;;;0.50;0.40;;;16.20;98.90;;;;;;5031277;28;20485;-77
2021/09/30 13:47:51;;;;;;;0.50;0.40;;;16.10;99.90;;;;;;5031315;28;20440;-77
2021/09/30 13:50:20;;;;;;;0.50;0.40;;;16.00;99.90;;;;;;5031235;28;20469;-77
2021/09/30 13:52:48;;;;;;;0.50;0.40;;;15.90;99.90;;;;;;5031423;28;20465;-77
2021/09/30 13:55:17;;;;;;;0.50;0.40;;;15.90;99.90;;;;;;5031979;28;20439;-78
2021/09/30 13:57:44;;;;;;;0.50;0.37;;;15.90;99.90;;;;;;5024747;28;20814;-75
2021/09/30 14:00:15;;;;;;;0.50;0.40;;;15.90;99.90;;;;;;5020770;28;20972;-76
2021/09/30 14:02:45;;;;;;;0.50;0.40;;;15.90;99.90;;;;;;5011529;28;20440;-77
2021/09/30 14:05:14;;;;;;;3.07;0.80;;;16.00;99.90;;;;;;5011758;28;20980;-77
2021/09/30 14:07:41;;;;;;;0.90;0.90;;;16.00;99.90;;;;;;5011636;28;20442;-77
2021/09/30 14:10:10;;;;;;;10.33;1.60;;;15.70;99.90;;;;;;5011343;28;20488;-78
2021/09/30 14:12:37;;;;;;;0.50;0.40;;;15.70;99.90;;;;;;5011777;28;20439;-77
2021/09/30 14:15:06;;;;;;;1.00;0.80;;;15.60;99.90;;;;;;5011180;28;20494;-77
2021/09/30 14:17:34;;;;;;;0.50;0.40;;;15.60;99.90;;;;;;5011353;28;20447;-76
2021/09/30 14:20:01;;;;;;;0.57;0.47;;;15.60;99.90;;;;;;5010994;28;20467;-78
2021/09/30 14:22:28;;;;;;;0.70;0.70;;;15.40;99.90;;;;;;5011137;28;20452;-77
2021/09/30 14:24:54;;;;;;;0.50;0.40;;;15.30;99.90;;;;;;5011018;28;20831;-78
2021/09/30 14:27:23;;;;;;;0.60;0.50;;;15.20;99.90;;;;;;5021726;28;20446;-77
2021/09/30 14:29:50;;;;;;;0.50;0.40;;;15.40;99.90;;;;;;5032378;28;20470;-77
2021/09/30 14:32:17;;;;;;;0.50;0.40;;;15.50;99.90;;;;;;5034221;28;20434;-77
2021/09/30 14:34:45;;;;;;;0.50;0.40;;;15.50;99.90;;;;;;5033823;28;21011;-77
2021/09/30 14:37:13;;;;;;;0.50;0.40;;;15.50;99.90;;;;;;5033995;28;20438;-76
2021/09/30 14:39:40;;;;;;;0.50;0.40;;;15.70;99.90;;;;;;5025279;28;20485;-78
2021/09/30 14:42:08;;;;;;;0.50;0.40;;;15.80;99.90;;;;;;5030902;28;20450;-77
2021/09/30 14:44:35;;;;;;;0.50;0.30;;;16.00;99.90;;;;;;5033718;28;20451;-77
2021/09/30 14:47:02;;;;;;;0.90;0.70;;;16.00;99.90;;;;;;5033923;28;20818;-76
2021/09/30 14:49:31;;;;;;;0.50;0.40;;;16.00;99.90;;;;;;5033995;28;20449;-76
2021/09/30 14:51:59;;;;;;;0.50;0.40;;;15.90;99.90;;;;;;5033344;28;20565;-78
2021/09/30 14:54:25;;;;;;;0.60;0.60;;;15.80;99.90;;;;;;5033556;28;20479;-77
2021/09/30 14:56:52;;;;;;;0.80;0.80;;;15.70;99.90;;;;;;5033540;28;20443;-78
2021/09/30 14:59:19;;;;;;;0.60;0.50;;;15.70;99.90;;;;;;5033169;28;20522;-78
2021/09/30 15:01:45;;;;;;;0.73;0.73;;;15.70;99.90;;;;;;5033439;28;20442;-76
2021/09/30 15:04:12;;;;;;;0.50;0.40;;;15.60;99.90;;;;;;5033610;28;20439;-77
2021/09/30 15:06:39;;;;;;;0.50;0.40;;;15.40;99.90;;;;;;5032949;28;20470;-76
2021/09/30 15:09:08;;;;;;;0.50;0.40;;;15.40;99.90;;;;;;5032808;28;20439;-76
2021/09/30 15:11:37;;;;;;;1.10;1.00;;;15.30;99.90;;;;;;5032713;28;20980;-77
2021/09/30 15:14:04;;;;;;;0.50;0.40;;;15.20;99.90;;;;;;5033523;28;20438;-76
2021/09/30 15:16:32;;;;;;;0.50;0.40;;;15.10;99.90;;;;;;5027186;28;20436;-72
2021/09/30 15:19:04;;;;;;;0.50;0.40;;;15.10;99.90;;;;;;5013632;28;20451;-76
2021/09/30 15:21:31;;;;;;;0.50;0.40;;;15.10;99.90;;;;;;5013359;28;20455;-76